KNIP

Jacksonville NAS (Towers Field) Airport

Jacksonville, Florida, USA
METAR KNIP 212253Z 20007KT 10SM -RA FEW040 SCT100 BKN160 BKN250 27/23 A2986 RMK AO2 RAB36 TSE13 SLP108 CB DSNT NW T2 SET P0000 T02670233 $
Observed Flight Rules
Jun-21 @ 22:53 UTC (an hour ago) Visual Flight Rules
Wind Visibility Clouds Conditions
200° at 7 knots 10 miles
  • Few at 4,000' AGL
  • Scattered at 10,000' AGL
  • Broken at 16,000' AGL
  • Broken at 25,000' AGL
  • Light Rain
Temperatures Readings Precipitation
Current 27°C / 81°F
Dewpoint 23°C / 73°F
Humidity 79%
Altimeter 29.86" Hg
Pressure 1010.8 hPa
Elevation 7
Current Rain 0.005
METAR KNIP 212253Z 20007KT 10SM -RA FEW040 SCT100 BKN160 BKN250 27/23 A2986 RMK AO2 RAB36 TSE13 SLP108 CB DSNT NW T2 SET P0000 T02670233 $
Observed Flight Rules
Jun-21 @ 22:53 UTC
(an hour ago)
VFR
Wind Visibility
200° at 7 knots 10 miles
Clouds
  • Few at 4,000' AGL
  • Scattered at 10,000' AGL
  • Broken at 16,000' AGL
  • Broken at 25,000' AGL
Conditions
  • Light Rain
Temperature Dewpoint
27°C / 81°F 23°C / 73°F
Humidity Altimeter Pressure
79% 29.86" Hg 1010.8 hPa
Current Rain
0.005